createdAt,value
2022-10-11T00:01:37.835Z,22.61
2022-10-11T00:06:31.317Z,22.53
2022-10-11T00:11:25.227Z,22.53
2022-10-11T00:16:18.741Z,22.62
2022-10-11T00:21:14.452Z,22.62
2022-10-11T00:26:10.195Z,22.60
2022-10-11T00:31:07.336Z,22.59
2022-10-11T00:36:01.579Z,22.58
2022-10-11T00:40:56.084Z,22.55
2022-10-11T00:45:57.831Z,22.55
2022-10-11T00:50:51.926Z,22.52
2022-10-11T00:55:52.561Z,22.54
2022-10-11T01:00:46.356Z,22.54
2022-10-11T01:05:41.105Z,22.40
2022-10-11T01:10:34.898Z,22.52
2022-10-11T01:16:08.633Z,22.51
2022-10-11T01:21:19.636Z,22.51
2022-10-11T01:26:54.839Z,22.51
2022-10-11T01:32:04.375Z,22.52
2022-10-11T01:37:12.871Z,22.52
2022-10-11T01:42:10.616Z,22.50
2022-10-11T01:47:04.010Z,22.36
2022-10-11T01:52:00.432Z,22.48
2022-10-11T01:57:32.090Z,22.48
2022-10-11T02:02:27.417Z,22.48
2022-10-11T02:07:25.943Z,22.32
2022-10-11T02:12:28.917Z,22.35
2022-10-11T02:17:28.521Z,22.47
2022-10-11T02:22:29.204Z,22.36
2022-10-11T02:27:27.578Z,22.41
2022-10-11T02:32:23.288Z,22.32
2022-10-11T02:37:23.898Z,22.29
2022-10-11T02:42:27.705Z,22.44
2022-10-11T02:47:22.263Z,22.42
2022-10-11T02:52:15.833Z,22.42
2022-10-11T02:57:09.515Z,22.29
2022-10-11T03:02:03.380Z,22.39
2022-10-11T03:06:56.534Z,22.41
2022-10-11T03:11:50.254Z,22.40
2022-10-11T03:16:43.990Z,22.26
2022-10-11T03:21:38.059Z,22.24
2022-10-11T03:26:31.596Z,22.37
2022-10-11T03:31:25.140Z,22.23
2022-10-11T03:36:20.087Z,22.37
2022-10-11T03:41:12.954Z,22.25
2022-10-11T03:46:09.042Z,22.24
2022-10-11T03:51:03.544Z,22.35
2022-10-11T03:55:57.421Z,22.17
2022-10-11T04:00:50.957Z,22.33
2022-10-11T04:05:45.274Z,22.16
2022-10-11T04:10:38.836Z,22.27
2022-10-11T04:15:32.873Z,22.18
2022-10-11T04:20:25.953Z,22.30
2022-10-11T04:25:19.806Z,22.29
2022-10-11T04:30:14.926Z,22.18
2022-10-11T04:35:08.852Z,22.28
2022-10-11T04:40:02.685Z,22.28
2022-10-11T04:44:56.237Z,22.28
2022-10-11T04:49:49.257Z,22.03
2022-10-11T04:54:43.032Z,22.28
2022-10-11T04:59:36.632Z,22.14
2022-10-11T05:04:30.706Z,22.25
2022-10-11T05:09:24.197Z,22.02
2022-10-11T05:14:17.997Z,22.25
2022-10-11T05:19:12.028Z,22.24
2022-10-11T05:24:06.888Z,22.25
2022-10-11T05:28:59.876Z,22.26
2022-10-11T05:33:53.736Z,22.21
2022-10-11T05:38:48.217Z,22.17
2022-10-11T05:43:42.914Z,22.14
2022-10-11T05:48:36.165Z,22.15
2022-10-11T05:53:30.644Z,22.10
2022-10-11T05:58:24.104Z,21.94
2022-10-11T06:03:17.037Z,21.49
2022-10-11T06:08:11.917Z,21.28
2022-10-11T06:13:06.118Z,21.21
2022-10-11T06:18:03.776Z,21.10
2022-10-11T06:22:57.210Z,21.11
2022-10-11T06:27:50.956Z,20.76
2022-10-11T06:32:44.345Z,20.96
2022-10-11T06:37:38.389Z,20.69
2022-10-11T06:42:31.958Z,20.96
2022-10-11T06:47:25.884Z,21.00
2022-10-11T06:52:19.390Z,20.75
2022-10-11T06:57:12.558Z,21.01
2022-10-11T07:02:06.868Z,20.93
2022-10-11T07:07:04.505Z,21.07
2022-10-11T07:11:59.804Z,21.22
2022-10-11T07:16:53.728Z,21.29
2022-10-11T07:21:47.032Z,21.18
2022-10-11T07:26:40.357Z,21.28
2022-10-11T07:31:34.021Z,21.42
2022-10-11T07:36:27.535Z,21.31
2022-10-11T07:41:21.404Z,21.38
2022-10-11T07:46:15.163Z,21.36
2022-10-11T07:51:13.850Z,21.48
2022-10-11T07:56:09.389Z,21.42
2022-10-11T08:01:03.657Z,21.37
2022-10-11T08:06:05.381Z,21.30
2022-10-11T08:11:00.254Z,21.51
2022-10-11T08:15:54.134Z,21.47
2022-10-11T08:20:47.704Z,21.53
2022-10-11T08:25:44.682Z,21.39
2022-10-11T08:30:38.460Z,21.42
2022-10-11T08:35:32.424Z,21.60
2022-10-11T08:40:26.015Z,21.59
2022-10-11T08:45:31.871Z,21.50
2022-10-11T08:50:25.146Z,21.64
2022-10-11T08:55:38.186Z,21.51
2022-10-11T09:00:34.293Z,21.61
2022-10-11T09:05:33.864Z,21.56
2022-10-11T09:10:46.567Z,21.69
2022-10-11T09:15:51.933Z,21.68
2022-10-11T09:21:14.366Z,21.67
2022-10-11T09:26:24.085Z,21.66
2022-10-11T09:31:18.649Z,21.58
2022-10-11T09:36:40.923Z,21.71
2022-10-11T09:42:05.593Z,21.73
2022-10-11T09:47:03.636Z,21.47
2022-10-11T09:51:59.701Z,21.52
2022-10-11T09:56:53.977Z,21.72
2022-10-11T10:01:47.574Z,21.65
2022-10-11T10:06:41.436Z,21.57
2022-10-11T10:11:38.425Z,21.59
2022-10-11T10:16:41.603Z,21.76
2022-10-11T10:21:38.112Z,21.66
2022-10-11T10:26:36.884Z,21.50
2022-10-11T10:32:09.223Z,21.80
2022-10-11T10:36:59.081Z,21.79
2022-10-11T10:41:52.351Z,21.66
2022-10-11T10:46:47.927Z,21.75
2022-10-11T10:52:06.645Z,21.72
2022-10-11T10:57:04.627Z,21.70
2022-10-11T11:02:28.204Z,21.83
2022-10-11T11:07:49.345Z,21.70
2022-10-11T11:13:03.933Z,21.80
2022-10-11T11:18:42.761Z,21.81
2022-10-11T11:23:43.640Z,21.74
2022-10-11T11:28:54.002Z,21.81
2022-10-11T11:34:06.008Z,21.84
2022-10-11T11:39:02.569Z,21.81
2022-10-11T11:44:18.549Z,21.82
2022-10-11T11:49:18.932Z,21.83
2022-10-11T11:54:49.492Z,21.86
2022-10-11T11:59:43.063Z,21.81
2022-10-11T12:04:39.926Z,21.87
2022-10-11T12:09:35.482Z,21.70
2022-10-11T12:14:40.347Z,21.82
2022-10-11T12:19:34.452Z,21.67
2022-10-11T12:24:57.557Z,21.84
2022-10-11T12:29:52.119Z,21.75
2022-10-11T12:34:46.167Z,21.67
2022-10-11T12:39:55.797Z,21.86
2022-10-11T12:45:13.754Z,21.85
2022-10-11T12:50:28.792Z,21.89
2022-10-11T12:56:03.324Z,21.85
2022-10-11T13:00:56.714Z,21.87
2022-10-11T13:05:53.727Z,21.63
2022-10-11T13:10:49.564Z,21.86
2022-10-11T13:15:43.884Z,21.90
2022-10-11T13:20:41.714Z,21.87
2022-10-11T13:25:42.516Z,21.86
2022-10-11T13:30:37.798Z,21.72
2022-10-11T13:35:36.863Z,21.88
2022-10-11T13:40:31.864Z,21.78
2022-10-11T13:45:28.561Z,21.88
2022-10-11T13:50:32.734Z,21.73
2022-10-11T13:55:36.602Z,21.91
2022-10-11T14:00:37.352Z,21.90
2022-10-11T14:05:30.645Z,21.91
2022-10-11T14:10:24.918Z,21.80
2022-10-11T14:15:24.000Z,21.91
2022-10-11T14:20:35.672Z,21.81
2022-10-11T14:25:29.909Z,21.85
2022-10-11T14:30:26.184Z,21.92
2022-10-11T14:35:26.296Z,21.64
2022-10-11T14:40:22.926Z,21.94
2022-10-11T14:45:16.436Z,21.97
2022-10-11T14:50:33.739Z,21.95
2022-10-11T14:55:27.720Z,21.87
2022-10-11T15:00:23.779Z,21.95
2022-10-11T15:05:18.009Z,21.96
2022-10-11T15:10:19.539Z,21.86
2022-10-11T15:15:16.791Z,21.89
2022-10-11T15:20:19.165Z,21.98
2022-10-11T15:25:16.495Z,21.86
2022-10-11T15:30:28.377Z,21.96
2022-10-11T15:35:23.553Z,21.97
2022-10-11T15:40:25.176Z,22.02
2022-10-11T15:45:21.636Z,21.88
2022-10-11T15:50:34.425Z,21.93
2022-10-11T15:55:28.483Z,21.92
2022-10-11T16:00:22.558Z,22.01
2022-10-11T16:05:16.476Z,22.03
2022-10-11T16:10:11.636Z,22.03
2022-10-11T16:15:05.917Z,21.88
2022-10-11T16:20:00.295Z,22.02
2022-10-11T16:24:54.075Z,21.99
2022-10-11T16:29:47.974Z,22.02
2022-10-11T16:34:42.229Z,22.06
2022-10-11T16:39:35.381Z,21.95
2022-10-11T16:44:29.716Z,22.11
2022-10-11T16:49:26.838Z,21.99
2022-10-11T16:54:20.969Z,22.10
2022-10-11T16:59:14.913Z,21.97
2022-10-11T17:04:09.173Z,22.24
2022-10-11T17:09:03.573Z,22.14
2022-10-11T17:13:56.821Z,22.32
2022-10-11T17:18:50.713Z,22.44
2022-10-11T17:23:44.385Z,22.42
2022-10-11T17:28:37.676Z,22.28
2022-10-11T17:33:32.050Z,22.27
2022-10-11T17:38:28.213Z,22.34
2022-10-11T17:43:22.035Z,22.40
2022-10-11T17:48:16.121Z,22.54
2022-10-11T17:53:10.202Z,22.38
2022-10-11T17:58:04.291Z,22.49
2022-10-11T18:02:58.073Z,22.60
2022-10-11T18:07:54.488Z,22.80
2022-10-11T18:12:47.841Z,22.84
2022-10-11T18:17:41.880Z,22.86
2022-10-11T18:22:35.222Z,22.74
2022-10-11T18:27:30.233Z,22.78
2022-10-11T18:32:23.893Z,22.67
2022-10-11T18:37:18.055Z,22.84
2022-10-11T18:42:11.995Z,22.87
2022-10-11T18:47:06.017Z,22.79
2022-10-11T18:51:59.764Z,22.82
2022-10-11T18:56:54.136Z,22.95
2022-10-11T19:01:48.716Z,22.78
2022-10-11T19:06:45.174Z,22.70
2022-10-11T19:11:42.957Z,22.61
2022-10-11T19:16:40.329Z,22.71
2022-10-11T19:21:34.625Z,22.59
2022-10-11T19:26:32.020Z,22.64
2022-10-11T19:31:26.527Z,22.60
2022-10-11T19:36:19.994Z,22.60
2022-10-11T19:41:15.894Z,22.60
2022-10-11T19:46:11.389Z,22.69
2022-10-11T19:51:08.537Z,22.54
2022-10-11T19:56:06.613Z,22.78
2022-10-11T20:01:14.072Z,22.83
2022-10-11T20:06:08.672Z,22.77
2022-10-11T20:11:10.776Z,22.84
2022-10-11T20:16:27.208Z,22.97
2022-10-11T20:21:22.504Z,22.85
2022-10-11T20:26:21.594Z,22.99
2022-10-11T20:31:16.728Z,22.98
2022-10-11T20:36:13.941Z,22.85
2022-10-11T20:41:09.060Z,22.73
2022-10-11T20:46:07.954Z,22.79
2022-10-11T20:51:01.815Z,22.80
2022-10-11T20:55:56.378Z,22.77
2022-10-11T21:00:50.252Z,22.73
2022-10-11T21:05:44.168Z,22.71
2022-10-11T21:10:37.764Z,22.62
2022-10-11T21:15:32.105Z,22.57
2022-10-11T21:20:26.005Z,22.52
2022-10-11T21:25:20.598Z,22.70
2022-10-11T21:30:12.988Z,22.60
2022-10-11T21:35:06.721Z,22.71
2022-10-11T21:40:00.057Z,22.57
2022-10-11T21:44:52.979Z,22.69
2022-10-11T21:49:50.869Z,22.69
2022-10-11T21:54:45.687Z,22.66
2022-10-11T21:59:39.297Z,22.68
2022-10-11T22:04:33.435Z,22.65
2022-10-11T22:09:29.139Z,22.64
2022-10-11T22:14:22.518Z,22.63
2022-10-11T22:19:15.459Z,22.52
2022-10-11T22:24:10.134Z,22.65
2022-10-11T22:29:03.370Z,22.64
2022-10-11T22:33:59.349Z,22.64
2022-10-11T22:38:52.634Z,22.51
2022-10-11T22:43:46.133Z,22.63
2022-10-11T22:48:39.961Z,22.60
2022-10-11T22:53:33.178Z,22.50
2022-10-11T22:58:26.461Z,22.48
2022-10-11T23:03:20.811Z,22.48
2022-10-11T23:08:14.933Z,22.59
2022-10-11T23:13:07.944Z,22.57
2022-10-11T23:18:00.829Z,22.52
2022-10-11T23:22:55.035Z,22.58
2022-10-11T23:27:48.164Z,22.58
2022-10-11T23:32:41.526Z,22.55
2022-10-11T23:37:36.117Z,22.56
2022-10-11T23:42:30.113Z,22.54
2022-10-11T23:47:24.083Z,22.44
2022-10-11T23:52:17.512Z,22.33
2022-10-11T23:57:10.741Z,22.56
